createdAt,value
2018-08-31T00:01:04.949Z,0
2018-08-31T00:02:14.382Z,0
2018-08-31T00:03:23.804Z,0
2018-08-31T00:04:32.972Z,0
2018-08-31T00:05:42.437Z,0
2018-08-31T00:06:51.877Z,0
2018-08-31T00:08:01.046Z,0
2018-08-31T00:09:10.732Z,0
2018-08-31T00:10:20.189Z,0
2018-08-31T00:11:29.411Z,0
2018-08-31T00:12:38.631Z,0
2018-08-31T00:13:47.816Z,0
2018-08-31T00:14:57.256Z,0
2018-08-31T00:16:06.192Z,0
2018-08-31T00:17:15.655Z,0
2018-08-31T00:18:25.078Z,0
2018-08-31T00:19:34.278Z,0
2018-08-31T00:20:43.239Z,0
2018-08-31T00:21:52.944Z,0
2018-08-31T00:23:02.664Z,0
2018-08-31T00:24:12.371Z,0
2018-08-31T00:25:22.063Z,0
2018-08-31T00:26:31.507Z,0
2018-08-31T00:27:40.955Z,0
2018-08-31T00:28:50.672Z,0
2018-08-31T00:29:59.847Z,0
2018-08-31T00:31:09.042Z,0
2018-08-31T00:32:17.962Z,0
2018-08-31T00:33:27.389Z,0
2018-08-31T00:34:36.061Z,0
2018-08-31T00:35:45.544Z,0
2018-08-31T00:36:54.977Z,0
2018-08-31T00:38:04.404Z,0
2018-08-31T00:39:13.858Z,0
2018-08-31T00:40:23.286Z,0
2018-08-31T00:41:32.975Z,0
2018-08-31T00:42:42.178Z,0
2018-08-31T00:43:50.820Z,0
2018-08-31T00:44:59.994Z,0
2018-08-31T00:46:09.471Z,0
2018-08-31T00:47:19.388Z,0
2018-08-31T00:48:28.821Z,0
2018-08-31T00:49:38.287Z,0
2018-08-31T00:50:47.733Z,0
2018-08-31T00:51:56.899Z,0
2018-08-31T00:53:06.580Z,0
2018-08-31T00:54:15.762Z,0
2018-08-31T00:55:25.227Z,0
2018-08-31T00:56:34.407Z,0
2018-08-31T00:57:44.013Z,0
2018-08-31T00:58:53.201Z,0
2018-08-31T01:00:02.354Z,0
2018-08-31T01:01:12.318Z,0
2018-08-31T01:02:21.759Z,0
2018-08-31T01:03:30.958Z,0
2018-08-31T01:04:40.128Z,0
2018-08-31T01:05:49.315Z,0
2018-08-31T01:06:58.748Z,0
2018-08-31T01:08:08.429Z,0
2018-08-31T01:09:17.639Z,0
2018-08-31T01:10:26.833Z,0
2018-08-31T01:11:36.527Z,0
2018-08-31T01:12:46.237Z,0
2018-08-31T01:13:55.948Z,0
2018-08-31T01:15:05.908Z,0
2018-08-31T01:16:15.337Z,0
2018-08-31T01:17:24.516Z,0
2018-08-31T01:18:34.249Z,0
2018-08-31T01:19:43.951Z,0
2018-08-31T01:20:53.126Z,0
2018-08-31T01:22:02.572Z,0
2018-08-31T01:23:12.329Z,0
2018-08-31T01:24:21.754Z,0
2018-08-31T01:25:30.995Z,0
2018-08-31T01:26:40.802Z,0
2018-08-31T01:27:49.716Z,0
2018-08-31T01:28:58.976Z,0
2018-08-31T01:30:08.163Z,0
2018-08-31T01:31:17.875Z,0
2018-08-31T01:32:27.053Z,0
2018-08-31T01:33:36.459Z,0
2018-08-31T01:34:46.208Z,0
2018-08-31T01:35:55.387Z,0
2018-08-31T01:37:05.338Z,0
2018-08-31T01:38:14.500Z,0
2018-08-31T01:39:24.194Z,0
2018-08-31T01:40:33.620Z,0
2018-08-31T01:41:42.785Z,0
2018-08-31T01:42:51.735Z,0
2018-08-31T01:44:00.654Z,0
2018-08-31T01:45:10.082Z,0
2018-08-31T01:46:19.239Z,0
2018-08-31T01:47:28.947Z,0
2018-08-31T01:48:38.113Z,0
2018-08-31T01:49:47.565Z,0
2018-08-31T01:50:56.722Z,0
2018-08-31T01:52:05.898Z,0
2018-08-31T01:53:15.604Z,0
2018-08-31T01:54:24.776Z,0
2018-08-31T01:55:33.949Z,0
2018-08-31T01:56:43.950Z,0
2018-08-31T01:57:53.115Z,0
2018-08-31T01:59:03.116Z,0
2018-08-31T02:00:12.273Z,0
2018-08-31T02:01:21.979Z,0
2018-08-31T02:02:31.906Z,0
2018-08-31T02:03:41.093Z,0
2018-08-31T02:04:51.028Z,0
2018-08-31T02:06:00.744Z,0
2018-08-31T02:07:10.172Z,0
2018-08-31T02:08:19.851Z,0
2018-08-31T02:09:29.011Z,0
2018-08-31T02:10:37.946Z,0
2018-08-31T02:11:47.355Z,0
2018-08-31T02:12:56.782Z,0
2018-08-31T02:14:05.716Z,0
2018-08-31T02:15:15.164Z,0
2018-08-31T02:16:24.341Z,0
2018-08-31T02:17:33.773Z,0
2018-08-31T02:18:42.956Z,0
2018-08-31T02:19:52.692Z,0
2018-08-31T02:21:01.857Z,0
2018-08-31T02:22:11.274Z,0
2018-08-31T02:23:20.739Z,0
2018-08-31T02:24:30.162Z,0
2018-08-31T02:25:39.071Z,0
2018-08-31T02:26:47.988Z,0
2018-08-31T02:27:57.460Z,0
2018-08-31T02:29:07.156Z,0
2018-08-31T02:30:16.369Z,0
2018-08-31T02:31:26.070Z,0
2018-08-31T02:32:35.269Z,0
2018-08-31T02:33:44.203Z,0
2018-08-31T02:34:53.386Z,0
2018-08-31T02:36:02.567Z,0
2018-08-31T02:37:12.530Z,0
2018-08-31T02:38:22.237Z,0
2018-08-31T02:39:31.538Z,0
2018-08-31T02:40:40.985Z,0
2018-08-31T02:41:50.512Z,0
2018-08-31T02:43:00.212Z,0
2018-08-31T02:44:09.915Z,0
2018-08-31T02:45:19.609Z,0
2018-08-31T02:46:29.547Z,0
2018-08-31T02:47:38.469Z,0
2018-08-31T02:48:47.897Z,0
2018-08-31T02:49:57.571Z,0
2018-08-31T02:51:06.995Z,0
2018-08-31T02:52:16.422Z,0
2018-08-31T02:53:26.111Z,0
2018-08-31T02:54:35.525Z,0
2018-08-31T02:55:44.983Z,0
2018-08-31T02:56:54.167Z,0
2018-08-31T02:58:03.585Z,0
2018-08-31T02:59:12.773Z,0
2018-08-31T03:00:22.476Z,0
2018-08-31T03:01:31.684Z,0
2018-08-31T03:02:41.211Z,0
2018-08-31T03:03:50.639Z,0
2018-08-31T03:04:59.824Z,0
2018-08-31T03:06:09.561Z,0
2018-08-31T03:07:19.296Z,0
2018-08-31T03:08:28.482Z,0
2018-08-31T03:09:37.950Z,0
2018-08-31T03:10:46.877Z,0
2018-08-31T03:11:56.048Z,0
2018-08-31T03:13:04.979Z,0
2018-08-31T03:14:14.668Z,0
2018-08-31T03:15:24.354Z,0
2018-08-31T03:16:33.843Z,0
2018-08-31T03:17:43.294Z,0
2018-08-31T03:18:52.464Z,0
2018-08-31T03:20:02.152Z,0
2018-08-31T03:21:11.934Z,0
2018-08-31T03:22:21.771Z,0
2018-08-31T03:23:30.953Z,0
2018-08-31T03:24:40.163Z,0
2018-08-31T03:25:50.116Z,0
2018-08-31T03:26:59.332Z,0
2018-08-31T03:28:08.755Z,0
2018-08-31T03:29:17.941Z,0
2018-08-31T03:30:27.906Z,0
2018-08-31T03:31:37.585Z,0
2018-08-31T03:32:47.535Z,0
2018-08-31T03:33:56.980Z,0
2018-08-31T03:35:06.184Z,0
2018-08-31T03:36:15.349Z,0
2018-08-31T03:37:24.577Z,0
2018-08-31T03:38:33.472Z,0
2018-08-31T03:39:43.164Z,0
2018-08-31T03:40:52.606Z,0
2018-08-31T03:42:02.281Z,0
2018-08-31T03:43:12.232Z,0
2018-08-31T03:44:21.142Z,0
2018-08-31T03:45:30.601Z,0
2018-08-31T03:46:40.023Z,0
2018-08-31T03:47:49.457Z,0
2018-08-31T03:48:59.143Z,0
2018-08-31T03:50:08.316Z,0
2018-08-31T03:51:17.791Z,0
2018-08-31T03:52:26.991Z,0
2018-08-31T03:53:36.508Z,0
2018-08-31T03:54:46.445Z,0
2018-08-31T03:55:56.141Z,0
2018-08-31T03:57:05.558Z,0
2018-08-31T03:58:15.312Z,0
2018-08-31T03:59:24.487Z,0
2018-08-31T04:00:34.243Z,0
2018-08-31T04:01:43.990Z,0
2018-08-31T04:02:53.217Z,0
2018-08-31T04:04:02.407Z,0
2018-08-31T04:05:12.115Z,0
2018-08-31T04:06:21.813Z,0
2018-08-31T04:07:31.512Z,0
2018-08-31T04:08:40.955Z,0
2018-08-31T04:09:50.132Z,0
2018-08-31T04:10:59.636Z,0
2018-08-31T04:12:08.548Z,0
2018-08-31T04:13:17.723Z,0
2018-08-31T04:14:27.149Z,0
2018-08-31T04:15:36.584Z,0
2018-08-31T04:16:45.496Z,0
2018-08-31T04:17:54.661Z,0
2018-08-31T04:19:04.369Z,0
2018-08-31T04:20:13.553Z,0
2018-08-31T04:21:22.991Z,0
2018-08-31T04:22:32.216Z,0
2018-08-31T04:23:41.384Z,0
2018-08-31T04:24:50.831Z,0
2018-08-31T04:26:00.017Z,0
2018-08-31T04:27:09.443Z,0
2018-08-31T04:28:18.606Z,0
2018-08-31T04:29:27.874Z,0
2018-08-31T04:30:37.555Z,0
2018-08-31T04:31:46.721Z,0
2018-08-31T04:32:56.387Z,0
2018-08-31T04:34:06.008Z,0
2018-08-31T04:35:15.231Z,0
2018-08-31T04:36:24.921Z,0
2018-08-31T04:37:33.583Z,0
2018-08-31T04:38:43.280Z,0
2018-08-31T04:39:52.453Z,0
2018-08-31T04:41:01.691Z,0
2018-08-31T04:42:10.882Z,0
2018-08-31T04:43:20.313Z,0
2018-08-31T04:44:29.728Z,0
2018-08-31T04:45:39.658Z,0
2018-08-31T04:46:49.381Z,0
2018-08-31T04:47:58.544Z,0
2018-08-31T04:49:07.466Z,0
2018-08-31T04:50:17.220Z,0
2018-08-31T04:51:26.479Z,0
2018-08-31T04:52:35.910Z,0
2018-08-31T04:53:45.879Z,0
2018-08-31T04:54:55.060Z,0
2018-08-31T04:56:04.768Z,0
2018-08-31T04:57:14.245Z,0
2018-08-31T04:58:23.421Z,0
2018-08-31T04:59:32.590Z,0
2018-08-31T05:00:42.027Z,0
2018-08-31T05:01:51.476Z,0
2018-08-31T05:03:00.655Z,0
2018-08-31T05:04:09.841Z,0
2018-08-31T05:05:18.791Z,0
2018-08-31T05:06:28.234Z,0
2018-08-31T05:07:37.399Z,0
2018-08-31T05:08:46.814Z,0
2018-08-31T05:09:56.243Z,0
2018-08-31T05:11:05.468Z,0
2018-08-31T05:12:15.169Z,0
2018-08-31T05:13:24.077Z,0
2018-08-31T05:14:33.827Z,0
2018-08-31T05:15:43.778Z,0
2018-08-31T05:16:52.952Z,0
2018-08-31T05:18:02.675Z,0
2018-08-31T05:19:12.358Z,0
2018-08-31T05:20:22.038Z,0
2018-08-31T05:21:31.467Z,0
2018-08-31T05:22:41.607Z,0
2018-08-31T05:23:51.462Z,0
2018-08-31T05:25:01.155Z,0
2018-08-31T05:26:10.317Z,0
2018-08-31T05:27:19.993Z,0
2018-08-31T05:28:29.707Z,0
2018-08-31T05:29:39.416Z,0
2018-08-31T05:30:48.591Z,0
2018-08-31T05:31:58.027Z,0
2018-08-31T05:33:07.191Z,0
2018-08-31T05:34:16.908Z,0
2018-08-31T05:35:26.587Z,0
2018-08-31T05:36:35.770Z,0
2018-08-31T05:37:45.492Z,0
2018-08-31T05:38:54.941Z,0
2018-08-31T05:40:04.373Z,0
2018-08-31T05:41:13.572Z,4
2018-08-31T05:42:23.065Z,4
2018-08-31T05:43:32.242Z,4
2018-08-31T05:44:41.663Z,4
2018-08-31T05:45:50.846Z,4
2018-08-31T05:47:00.274Z,4
2018-08-31T05:48:09.962Z,4
2018-08-31T05:49:19.137Z,4
2018-08-31T05:50:28.829Z,4
2018-08-31T05:51:38.545Z,4
2018-08-31T05:52:48.476Z,4
2018-08-31T05:53:57.379Z,4
2018-08-31T05:55:06.827Z,4
2018-08-31T05:56:16.504Z,4
2018-08-31T05:57:25.931Z,4
2018-08-31T05:58:36.043Z,4
2018-08-31T05:59:45.472Z,4
2018-08-31T06:00:54.640Z,4
2018-08-31T06:02:04.558Z,4
2018-08-31T06:03:14.277Z,4
2018-08-31T06:04:23.465Z,4
2018-08-31T06:05:32.636Z,4
2018-08-31T06:06:42.065Z,4
2018-08-31T06:07:50.717Z,4
2018-08-31T06:09:00.423Z,4
2018-08-31T06:10:09.852Z,4
2018-08-31T06:11:19.018Z,4
2018-08-31T06:12:27.929Z,4
2018-08-31T06:13:36.578Z,4
2018-08-31T06:14:46.271Z,4
2018-08-31T06:15:55.979Z,0
2018-08-31T06:17:05.136Z,0
2018-08-31T06:18:14.323Z,0
2018-08-31T06:19:23.490Z,0
2018-08-31T06:20:32.922Z,0
2018-08-31T06:21:42.962Z,0
2018-08-31T06:22:52.410Z,0
2018-08-31T06:24:01.851Z,0
2018-08-31T06:25:11.800Z,0
2018-08-31T06:26:21.512Z,0
2018-08-31T06:27:31.451Z,0
2018-08-31T06:28:40.628Z,0
2018-08-31T06:29:50.072Z,0
2018-08-31T06:30:59.758Z,0
2018-08-31T06:32:09.200Z,0
2018-08-31T06:33:18.610Z,4
2018-08-31T06:34:28.037Z,4
2018-08-31T06:35:37.734Z,4
2018-08-31T06:36:46.905Z,4
2018-08-31T06:37:56.629Z,4
2018-08-31T06:39:06.343Z,4
2018-08-31T06:40:16.061Z,4
2018-08-31T06:41:25.786Z,4
2018-08-31T06:42:34.955Z,4
2018-08-31T06:43:44.175Z,4
2018-08-31T06:44:53.359Z,4
2018-08-31T06:46:02.520Z,4
2018-08-31T06:47:12.211Z,4
2018-08-31T06:48:21.127Z,4
2018-08-31T06:49:30.291Z,4
2018-08-31T06:50:39.465Z,4
2018-08-31T06:51:48.900Z,4
2018-08-31T06:52:57.554Z,4
2018-08-31T06:54:07.080Z,4
2018-08-31T06:55:16.518Z,4
2018-08-31T06:56:26.223Z,4
2018-08-31T06:57:35.935Z,0
2018-08-31T06:58:45.161Z,0
2018-08-31T06:59:54.321Z,0
2018-08-31T07:01:04.003Z,4
2018-08-31T07:02:13.710Z,4
2018-08-31T07:03:22.878Z,4
2018-08-31T07:04:31.792Z,4
2018-08-31T07:05:41.214Z,4
2018-08-31T07:06:50.631Z,4
2018-08-31T07:08:00.624Z,4
2018-08-31T07:09:09.788Z,4
2018-08-31T07:10:19.213Z,4
2018-08-31T07:11:28.644Z,4
2018-08-31T07:12:38.374Z,4
2018-08-31T07:13:47.273Z,4
2018-08-31T07:14:56.701Z,4
2018-08-31T07:16:05.878Z,4
2018-08-31T07:17:15.596Z,4
2018-08-31T07:18:25.534Z,4
2018-08-31T07:19:35.435Z,4
2018-08-31T07:20:44.901Z,4
2018-08-31T07:21:54.602Z,8
2018-08-31T07:23:03.775Z,8
2018-08-31T07:24:13.304Z,4
2018-08-31T07:25:23.079Z,4
2018-08-31T07:26:33.381Z,4
2018-08-31T07:27:43.495Z,4
2018-08-31T07:28:52.956Z,4
2018-08-31T07:30:02.676Z,4
2018-08-31T07:31:12.372Z,4
2018-08-31T07:32:21.793Z,4
2018-08-31T07:33:31.501Z,8
2018-08-31T07:34:40.492Z,8
2018-08-31T07:35:50.526Z,8
2018-08-31T07:37:00.330Z,8
2018-08-31T07:38:10.069Z,8
2018-08-31T07:39:19.801Z,8
2018-08-31T07:40:29.779Z,4
2018-08-31T07:41:39.231Z,4
2018-08-31T07:42:48.951Z,4
2018-08-31T07:43:58.414Z,8
2018-08-31T07:45:07.594Z,8
2018-08-31T07:46:17.040Z,8
2018-08-31T07:47:26.510Z,8
2018-08-31T07:48:35.935Z,8
2018-08-31T07:49:45.894Z,8
2018-08-31T07:50:55.375Z,8
2018-08-31T07:52:05.082Z,8
2018-08-31T07:53:14.247Z,8
2018-08-31T07:54:23.425Z,8
2018-08-31T07:55:32.876Z,8
2018-08-31T07:56:42.592Z,8
2018-08-31T07:57:52.285Z,8
2018-08-31T07:59:01.495Z,8
2018-08-31T08:00:11.184Z,8
2018-08-31T08:01:20.696Z,8
2018-08-31T08:02:29.618Z,8
2018-08-31T08:03:39.311Z,12
2018-08-31T08:04:48.793Z,12
2018-08-31T08:05:58.465Z,12
2018-08-31T08:07:08.177Z,12
2018-08-31T08:08:17.378Z,12
2018-08-31T08:09:26.836Z,12
2018-08-31T08:10:36.286Z,12
2018-08-31T08:11:45.706Z,8
2018-08-31T08:12:55.137Z,8
2018-08-31T08:14:04.325Z,8
2018-08-31T08:15:13.761Z,12
2018-08-31T08:16:23.522Z,8
2018-08-31T08:17:32.947Z,8
2018-08-31T08:18:42.128Z,8
2018-08-31T08:19:51.394Z,12
2018-08-31T08:21:00.822Z,12
2018-08-31T08:22:10.254Z,12
2018-08-31T08:23:20.036Z,12
2018-08-31T08:24:29.484Z,12
2018-08-31T08:25:39.245Z,12
2018-08-31T08:26:48.418Z,12
2018-08-31T08:27:57.875Z,8
2018-08-31T08:29:07.548Z,12
2018-08-31T08:30:16.733Z,12
2018-08-31T08:31:26.691Z,12
2018-08-31T08:32:36.408Z,12
2018-08-31T08:33:45.875Z,12
2018-08-31T08:34:55.103Z,12
2018-08-31T08:36:04.476Z,8
2018-08-31T08:37:14.096Z,12
2018-08-31T08:38:23.047Z,12
2018-08-31T08:39:33.013Z,12
2018-08-31T08:40:41.929Z,12
2018-08-31T08:41:51.694Z,12
2018-08-31T08:43:01.746Z,8
2018-08-31T08:44:11.180Z,12
2018-08-31T08:45:20.866Z,12
2018-08-31T08:46:30.299Z,8
2018-08-31T08:47:39.747Z,12
2018-08-31T08:48:50.279Z,12
2018-08-31T08:49:59.444Z,12
2018-08-31T08:51:08.619Z,12
2018-08-31T08:52:18.112Z,12
2018-08-31T08:53:27.827Z,12
2018-08-31T08:54:37.540Z,12
2018-08-31T08:55:46.987Z,12
2018-08-31T08:56:56.401Z,12
2018-08-31T08:58:05.902Z,12
2018-08-31T08:59:15.352Z,8
2018-08-31T09:00:24.535Z,12
2018-08-31T09:01:33.710Z,12
2018-08-31T09:02:43.410Z,8
2018-08-31T09:03:52.589Z,8
2018-08-31T09:05:01.764Z,12
2018-08-31T09:06:11.186Z,12
2018-08-31T09:07:20.618Z,12
2018-08-31T09:08:30.095Z,12
2018-08-31T09:09:39.261Z,12
2018-08-31T09:10:49.211Z,12
2018-08-31T09:11:58.944Z,12
2018-08-31T09:13:08.851Z,12
2018-08-31T09:14:18.285Z,12
2018-08-31T09:15:27.465Z,12
2018-08-31T09:16:36.628Z,12
2018-08-31T09:17:46.335Z,12
2018-08-31T09:18:55.766Z,12
2018-08-31T09:20:04.994Z,12
2018-08-31T09:21:13.882Z,12
2018-08-31T09:22:23.587Z,16
2018-08-31T09:23:32.532Z,12
2018-08-31T09:24:42.130Z,16
2018-08-31T09:25:52.275Z,16
2018-08-31T09:27:01.483Z,16
2018-08-31T09:28:10.923Z,16
2018-08-31T09:29:20.639Z,16
2018-08-31T09:30:30.350Z,12
2018-08-31T09:31:40.030Z,12
2018-08-31T09:32:49.960Z,12
2018-08-31T09:33:58.896Z,16
2018-08-31T09:35:08.341Z,12
2018-08-31T09:36:17.820Z,12
2018-08-31T09:37:27.792Z,12
2018-08-31T09:38:37.032Z,12
2018-08-31T09:39:46.459Z,16
2018-08-31T09:40:56.198Z,16
2018-08-31T09:42:05.652Z,16
2018-08-31T09:43:15.096Z,12
2018-08-31T09:44:24.529Z,12
2018-08-31T09:45:34.231Z,12
2018-08-31T09:46:43.951Z,16
2018-08-31T09:47:53.660Z,16
2018-08-31T09:49:03.098Z,12
2018-08-31T09:50:13.078Z,16
2018-08-31T09:51:22.000Z,16
2018-08-31T09:52:30.931Z,20
2018-08-31T09:53:40.399Z,16
2018-08-31T09:54:49.588Z,16
2018-08-31T09:55:59.020Z,16
2018-08-31T09:57:08.443Z,16
2018-08-31T09:58:17.360Z,20
2018-08-31T09:59:26.550Z,16
2018-08-31T10:00:36.257Z,20
2018-08-31T10:01:45.188Z,20
2018-08-31T10:02:54.616Z,20
2018-08-31T10:04:04.113Z,20
2018-08-31T10:05:13.555Z,20
2018-08-31T10:06:23.265Z,20
2018-08-31T10:07:33.001Z,20
2018-08-31T10:08:42.186Z,16
2018-08-31T10:09:51.367Z,16
2018-08-31T10:11:00.848Z,16
2018-08-31T10:12:10.340Z,16
2018-08-31T10:13:19.838Z,16
2018-08-31T10:14:29.612Z,16
2018-08-31T10:15:39.047Z,16
2018-08-31T10:16:48.229Z,12
2018-08-31T10:17:57.982Z,16
2018-08-31T10:19:07.722Z,12
2018-08-31T10:20:17.417Z,16
2018-08-31T10:21:26.326Z,16
2018-08-31T10:22:35.758Z,12
2018-08-31T10:23:44.698Z,20
2018-08-31T10:24:54.413Z,16
2018-08-31T10:26:03.857Z,16
2018-08-31T10:27:13.074Z,20
2018-08-31T10:28:21.992Z,20
2018-08-31T10:29:31.176Z,20
2018-08-31T10:30:40.609Z,16
2018-08-31T10:31:50.422Z,16
2018-08-31T10:32:59.872Z,12
2018-08-31T10:34:09.040Z,8
2018-08-31T10:35:17.960Z,8
2018-08-31T10:36:27.127Z,12
2018-08-31T10:37:36.843Z,12
2018-08-31T10:38:46.092Z,16
2018-08-31T10:39:54.988Z,20
2018-08-31T10:41:04.153Z,20
2018-08-31T10:42:13.860Z,16
2018-08-31T10:43:23.015Z,20
2018-08-31T10:44:31.929Z,16
2018-08-31T10:45:40.905Z,20
2018-08-31T10:46:50.586Z,20
2018-08-31T10:48:00.300Z,20
2018-08-31T10:49:09.462Z,8
2018-08-31T10:50:18.903Z,12
2018-08-31T10:51:28.067Z,8
2018-08-31T10:52:37.317Z,12
2018-08-31T10:53:46.246Z,12
2018-08-31T10:54:55.437Z,12
2018-08-31T10:56:05.373Z,12
2018-08-31T10:57:14.343Z,20
2018-08-31T10:58:23.783Z,20
2018-08-31T10:59:33.209Z,24
2018-08-31T11:00:42.956Z,24
2018-08-31T11:01:52.388Z,24
2018-08-31T11:03:02.353Z,20
2018-08-31T11:04:12.082Z,24
2018-08-31T11:05:21.761Z,24
2018-08-31T11:06:30.678Z,24
2018-08-31T11:07:40.118Z,24
2018-08-31T11:08:49.812Z,24
2018-08-31T11:09:58.994Z,24
2018-08-31T11:11:08.949Z,24
2018-08-31T11:12:17.873Z,24
2018-08-31T11:13:27.077Z,8
2018-08-31T11:14:36.543Z,12
2018-08-31T11:15:45.998Z,8
2018-08-31T11:16:55.465Z,8
2018-08-31T11:18:04.657Z,8
2018-08-31T11:19:14.092Z,8
2018-08-31T11:20:23.032Z,8
2018-08-31T11:21:32.772Z,8
2018-08-31T11:22:42.199Z,8
2018-08-31T11:23:51.371Z,12
2018-08-31T11:25:00.545Z,20
2018-08-31T11:26:10.566Z,24
2018-08-31T11:27:20.244Z,24
2018-08-31T11:28:30.291Z,20
2018-08-31T11:29:39.719Z,8
2018-08-31T11:30:48.891Z,12
2018-08-31T11:31:58.341Z,8
2018-08-31T11:33:07.512Z,8
2018-08-31T11:34:17.475Z,12
2018-08-31T11:35:27.187Z,16
2018-08-31T11:36:36.685Z,8
2018-08-31T11:37:46.133Z,12
2018-08-31T11:38:55.318Z,8
2018-08-31T11:40:04.764Z,8
2018-08-31T11:41:14.213Z,8
2018-08-31T11:42:23.901Z,8
2018-08-31T11:43:33.745Z,8
2018-08-31T11:44:43.560Z,8
2018-08-31T11:45:53.025Z,12
2018-08-31T11:47:02.462Z,20
2018-08-31T11:48:12.167Z,24
2018-08-31T11:49:21.100Z,24
2018-08-31T11:50:30.524Z,20
2018-08-31T11:51:40.211Z,24
2018-08-31T11:52:50.204Z,20
2018-08-31T11:53:59.615Z,24
2018-08-31T11:55:09.738Z,24
2018-08-31T11:56:19.437Z,24
2018-08-31T11:57:28.625Z,20
2018-08-31T11:58:38.060Z,28
2018-08-31T11:59:47.758Z,24
2018-08-31T12:00:57.507Z,24
2018-08-31T12:02:07.732Z,24
2018-08-31T12:03:17.168Z,24
2018-08-31T12:04:26.344Z,28
2018-08-31T12:05:35.521Z,28
2018-08-31T12:06:44.681Z,28
2018-08-31T12:07:54.989Z,28
2018-08-31T12:09:04.725Z,12
2018-08-31T12:10:14.409Z,12
2018-08-31T12:11:23.837Z,28
2018-08-31T12:12:33.778Z,28
2018-08-31T12:13:43.480Z,28
2018-08-31T12:14:53.175Z,28
2018-08-31T12:16:02.391Z,28
2018-08-31T12:17:11.561Z,28
2018-08-31T12:18:20.765Z,8
2018-08-31T12:19:30.374Z,8
2018-08-31T12:20:39.549Z,4
2018-08-31T12:21:48.740Z,4
2018-08-31T12:22:58.689Z,8
2018-08-31T12:24:07.609Z,8
2018-08-31T12:25:17.043Z,8
2018-08-31T12:26:25.957Z,8
2018-08-31T12:27:35.126Z,8
2018-08-31T12:28:44.565Z,8
2018-08-31T12:29:54.243Z,8
2018-08-31T12:31:02.930Z,8
2018-08-31T12:32:12.106Z,4
2018-08-31T12:33:21.533Z,4
2018-08-31T12:34:30.735Z,8
2018-08-31T12:35:39.920Z,8
2018-08-31T12:36:49.162Z,8
2018-08-31T12:37:58.601Z,8
2018-08-31T12:39:07.531Z,8
2018-08-31T12:40:16.965Z,8
2018-08-31T12:41:26.144Z,8
2018-08-31T12:42:35.829Z,8
2018-08-31T12:43:45.738Z,8
2018-08-31T12:44:55.580Z,8
2018-08-31T12:46:05.278Z,8
2018-08-31T12:47:14.495Z,12
2018-08-31T12:48:24.170Z,12
2018-08-31T12:49:33.420Z,8
2018-08-31T12:50:42.346Z,12
2018-08-31T12:51:51.551Z,12
2018-08-31T12:53:01.246Z,24
2018-08-31T12:54:10.668Z,16
2018-08-31T12:55:20.103Z,20
2018-08-31T12:56:29.785Z,28
2018-08-31T12:57:39.224Z,32
2018-08-31T12:58:48.903Z,36
2018-08-31T12:59:58.351Z,36
2018-08-31T13:01:08.120Z,36
2018-08-31T13:02:17.848Z,40
2018-08-31T13:03:27.269Z,44
2018-08-31T13:04:37.219Z,48
2018-08-31T13:05:46.896Z,52
2018-08-31T13:06:56.182Z,52
2018-08-31T13:08:06.065Z,44
2018-08-31T13:09:15.749Z,56
2018-08-31T13:10:25.286Z,52
2018-08-31T13:11:34.728Z,52
2018-08-31T13:12:44.431Z,56
2018-08-31T13:13:53.360Z,56
2018-08-31T13:15:02.810Z,56
2018-08-31T13:16:11.723Z,56
2018-08-31T13:17:21.153Z,52
2018-08-31T13:18:30.577Z,16
2018-08-31T13:19:40.536Z,12
2018-08-31T13:20:49.967Z,12
2018-08-31T13:21:59.430Z,52
2018-08-31T13:23:08.873Z,40
2018-08-31T13:24:18.113Z,52
2018-08-31T13:25:27.667Z,56
2018-08-31T13:26:37.099Z,56
2018-08-31T13:27:46.805Z,56
2018-08-31T13:28:56.000Z,52
2018-08-31T13:30:05.203Z,44
2018-08-31T13:31:15.385Z,56
2018-08-31T13:32:25.337Z,56
2018-08-31T13:33:35.072Z,60
2018-08-31T13:34:44.510Z,60
2018-08-31T13:35:54.044Z,60
2018-08-31T13:37:03.470Z,60
2018-08-31T13:38:13.068Z,60
2018-08-31T13:39:22.302Z,60
2018-08-31T13:40:32.258Z,56
2018-08-31T13:41:41.427Z,60
2018-08-31T13:42:50.345Z,56
2018-08-31T13:43:59.913Z,64
2018-08-31T13:45:09.616Z,64
2018-08-31T13:46:19.063Z,64
2018-08-31T13:47:28.490Z,60
2018-08-31T13:48:37.903Z,56
2018-08-31T13:49:47.080Z,20
2018-08-31T13:50:56.753Z,56
2018-08-31T13:52:06.172Z,56
2018-08-31T13:53:15.909Z,56
2018-08-31T13:54:25.084Z,56
2018-08-31T13:55:34.765Z,52
2018-08-31T13:56:43.969Z,56
2018-08-31T13:57:53.145Z,56
2018-08-31T13:59:02.614Z,52
2018-08-31T14:00:12.052Z,52
2018-08-31T14:01:22.000Z,56
2018-08-31T14:02:31.428Z,56
2018-08-31T14:03:40.755Z,52
2018-08-31T14:04:50.291Z,48
2018-08-31T14:05:59.472Z,48
2018-08-31T14:07:08.667Z,48
2018-08-31T14:08:18.372Z,44
2018-08-31T14:09:28.396Z,44
2018-08-31T14:10:38.438Z,44
2018-08-31T14:11:47.351Z,40
2018-08-31T14:12:57.880Z,36
2018-08-31T14:14:07.078Z,40
2018-08-31T14:15:16.534Z,40
2018-08-31T14:16:25.706Z,40
2018-08-31T14:17:34.876Z,36
2018-08-31T14:18:43.803Z,36
2018-08-31T14:19:52.718Z,32
2018-08-31T14:21:01.943Z,32
2018-08-31T14:22:10.851Z,28
2018-08-31T14:23:20.274Z,32
2018-08-31T14:24:29.445Z,28
2018-08-31T14:25:38.870Z,28
2018-08-31T14:26:48.346Z,24
2018-08-31T14:27:57.517Z,28
2018-08-31T14:29:07.200Z,24
2018-08-31T14:30:16.626Z,24
2018-08-31T14:31:26.134Z,20
2018-08-31T14:32:35.592Z,20
2018-08-31T14:33:45.021Z,20
2018-08-31T14:34:54.704Z,20
2018-08-31T14:36:04.160Z,16
2018-08-31T14:37:13.325Z,12
2018-08-31T14:38:22.800Z,8
2018-08-31T14:39:32.229Z,12
2018-08-31T14:40:41.936Z,16
2018-08-31T14:41:51.373Z,12
2018-08-31T14:43:00.802Z,16
2018-08-31T14:44:10.241Z,8
2018-08-31T14:45:19.169Z,12
2018-08-31T14:46:28.394Z,12
2018-08-31T14:47:37.559Z,12
2018-08-31T14:48:47.268Z,12
2018-08-31T14:49:56.685Z,12
2018-08-31T14:51:06.608Z,12
2018-08-31T14:52:16.037Z,12
2018-08-31T14:53:24.955Z,12
2018-08-31T14:54:34.130Z,12
2018-08-31T14:55:43.295Z,12
2018-08-31T14:56:51.948Z,12
2018-08-31T14:58:00.874Z,8
2018-08-31T14:59:09.788Z,8
2018-08-31T15:00:19.223Z,8
2018-08-31T15:01:28.660Z,12
2018-08-31T15:02:38.404Z,12
2018-08-31T15:03:48.164Z,8
2018-08-31T15:04:57.924Z,8
2018-08-31T15:06:07.876Z,8
2018-08-31T15:07:17.574Z,8
2018-08-31T15:08:27.003Z,8
2018-08-31T15:09:35.940Z,12
2018-08-31T15:10:44.871Z,8
2018-08-31T15:11:54.041Z,8
2018-08-31T15:13:03.709Z,8
2018-08-31T15:14:13.387Z,8
2018-08-31T15:15:22.850Z,8
2018-08-31T15:16:32.769Z,8
2018-08-31T15:17:42.460Z,8
2018-08-31T15:18:51.893Z,8
2018-08-31T15:20:00.823Z,4
2018-08-31T15:21:10.253Z,8
2018-08-31T15:22:19.963Z,4
2018-08-31T15:23:29.967Z,4
2018-08-31T15:24:39.872Z,4
2018-08-31T15:25:49.952Z,8
2018-08-31T15:26:59.843Z,8
2018-08-31T15:28:09.035Z,8
2018-08-31T15:29:18.476Z,8
2018-08-31T15:30:27.722Z,4
2018-08-31T15:31:37.337Z,4
2018-08-31T15:32:47.008Z,8
2018-08-31T15:33:56.705Z,8
2018-08-31T15:35:06.386Z,8
2018-08-31T15:36:16.072Z,8
2018-08-31T15:37:25.357Z,8
2018-08-31T15:38:34.552Z,8
2018-08-31T15:39:44.503Z,8
2018-08-31T15:40:54.440Z,4
2018-08-31T15:42:04.157Z,4
2018-08-31T15:43:13.885Z,4
2018-08-31T15:44:23.359Z,4
2018-08-31T15:45:32.528Z,4
2018-08-31T15:46:41.959Z,4
2018-08-31T15:47:51.145Z,4
2018-08-31T15:49:00.855Z,4
2018-08-31T15:50:10.064Z,4
2018-08-31T15:51:19.233Z,4
2018-08-31T15:52:28.674Z,4
2018-08-31T15:53:37.668Z,4
2018-08-31T15:54:47.080Z,4
2018-08-31T15:55:56.910Z,4
2018-08-31T15:57:06.737Z,8
2018-08-31T15:58:16.225Z,8
2018-08-31T15:59:25.491Z,8
2018-08-31T16:00:35.186Z,8
2018-08-31T16:01:44.739Z,4
2018-08-31T16:02:54.505Z,4
2018-08-31T16:04:03.917Z,4
2018-08-31T16:05:12.816Z,4
2018-08-31T16:06:22.775Z,4
2018-08-31T16:07:31.973Z,4
2018-08-31T16:08:41.666Z,4
2018-08-31T16:09:50.845Z,4
2018-08-31T16:11:00.329Z,4
2018-08-31T16:12:09.781Z,4
2018-08-31T16:13:18.962Z,4
2018-08-31T16:14:28.398Z,4
2018-08-31T16:15:37.810Z,4
2018-08-31T16:16:46.717Z,4
2018-08-31T16:17:56.724Z,4
2018-08-31T16:19:07.167Z,4
2018-08-31T16:20:16.617Z,4
2018-08-31T16:21:26.307Z,4
2018-08-31T16:22:35.749Z,4
2018-08-31T16:23:45.224Z,4
2018-08-31T16:24:54.944Z,4
2018-08-31T16:26:04.390Z,4
2018-08-31T16:27:13.562Z,4
2018-08-31T16:28:23.302Z,4
2018-08-31T16:29:33.246Z,4
2018-08-31T16:30:42.174Z,4
2018-08-31T16:31:51.856Z,4
2018-08-31T16:33:01.268Z,4
2018-08-31T16:34:10.439Z,4
2018-08-31T16:35:19.603Z,4
2018-08-31T16:36:29.015Z,4
2018-08-31T16:37:37.915Z,4
2018-08-31T16:38:47.712Z,0
2018-08-31T16:39:57.157Z,0
2018-08-31T16:41:06.572Z,4
2018-08-31T16:42:15.761Z,4
2018-08-31T16:43:25.529Z,4
2018-08-31T16:44:34.970Z,4
2018-08-31T16:45:45.381Z,4
2018-08-31T16:46:55.071Z,4
2018-08-31T16:48:04.512Z,4
2018-08-31T16:49:13.520Z,4
2018-08-31T16:50:22.965Z,4
2018-08-31T16:51:32.434Z,4
2018-08-31T16:52:42.379Z,4
2018-08-31T16:53:51.572Z,4
2018-08-31T16:55:01.265Z,4